Time;durP1;ratioP1;P1;durP2;ratioP2;P2;SDS_P1;SDS_P2;PMS_P1;PMS_P2;Temp;Humidity;BMP_temperature;BMP_pressure;BME280_temperature;BME280_humidity;BME280_pressure;Samples;Min_cycle;Max_cycle;Signal;HPM_P1;HPM_P2
2023/10/24 00:00:38;;;;;;;29.27;16.85;;;;;;;;;;5051407;28;20514;-62
2023/10/24 00:03:04;;;;;;;26.92;15.90;;;;;;;;;;5050678;28;20041;-62
2023/10/24 00:05:30;;;;;;;26.67;15.38;;;;;;;;;;5050894;28;20063;-62
2023/10/24 00:07:56;;;;;;;26.90;16.00;;;;;;;;;;5051197;28;20041;-62
2023/10/24 00:10:23;;;;;;;25.85;16.67;;;;;;;;;;5050855;28;20091;-62
2023/10/24 00:12:50;;;;;;;26.38;16.00;;;;;;;;;;5051154;28;20055;-62
2023/10/24 00:15:16;;;;;;;27.00;15.55;;;;;;;;;;5051002;28;20037;-62
2023/10/24 00:17:42;;;;;;;25.08;15.70;;;;;;;;;;5032783;28;20037;-62
2023/10/24 00:20:09;;;;;;;26.65;16.30;;;;;;;;;;5050990;28;20044;-62
2023/10/24 00:22:35;;;;;;;26.90;15.25;;;;;;;;;;5050977;28;20095;-62
2023/10/24 00:25:01;;;;;;;24.80;15.63;;;;;;;;;;5050618;28;20048;-62
2023/10/24 00:27:27;;;;;;;27.77;15.77;;;;;;;;;;5050874;28;20492;-62
2023/10/24 00:29:53;;;;;;;31.95;16.20;;;;;;;;;;5050937;28;20878;-62
2023/10/24 00:32:20;;;;;;;29.48;16.38;;;;;;;;;;5032729;28;20052;-62
2023/10/24 00:34:46;;;;;;;30.92;16.75;;;;;;;;;;5050794;28;20638;-62
2023/10/24 00:37:12;;;;;;;26.40;16.17;;;;;;;;;;5050657;28;20459;-62
2023/10/24 00:39:38;;;;;;;29.60;15.93;;;;;;;;;;5050318;28;20048;-62
2023/10/24 00:42:05;;;;;;;29.20;16.08;;;;;;;;;;5050765;28;20040;-62
2023/10/24 00:44:32;;;;;;;28.85;16.33;;;;;;;;;;5050847;28;20045;-62
2023/10/24 00:46:58;;;;;;;26.42;16.50;;;;;;;;;;5050217;28;20052;-62
2023/10/24 00:49:25;;;;;;;26.75;17.17;;;;;;;;;;5050476;28;20045;-62
2023/10/24 00:51:53;;;;;;;27.02;15.68;;;;;;;;;;5050328;28;20037;-62
2023/10/24 00:54:19;;;;;;;24.70;15.23;;;;;;;;;;5049934;28;20057;-62
2023/10/24 00:56:46;;;;;;;29.13;16.13;;;;;;;;;;5050421;28;20049;-62
2023/10/24 00:59:13;;;;;;;29.63;16.77;;;;;;;;;;5050540;28;20063;-62
2023/10/24 01:01:39;;;;;;;28.42;16.00;;;;;;;;;;5050256;28;20033;-62
2023/10/24 01:04:06;;;;;;;34.90;16.42;;;;;;;;;;5053225;28;20059;-62
2023/10/24 01:06:32;;;;;;;26.73;16.50;;;;;;;;;;5054614;28;20045;-62
2023/10/24 01:08:58;;;;;;;27.10;16.35;;;;;;;;;;5054212;28;20076;-62
2023/10/24 01:11:24;;;;;;;29.40;16.65;;;;;;;;;;5054459;28;20048;-62
2023/10/24 01:13:50;;;;;;;23.20;14.85;;;;;;;;;;5054665;28;20044;-62
2023/10/24 01:16:17;;;;;;;27.45;15.70;;;;;;;;;;5053924;28;20044;-62
2023/10/24 01:18:43;;;;;;;27.65;15.88;;;;;;;;;;5054368;28;20044;-62
2023/10/24 01:21:09;;;;;;;27.50;15.40;;;;;;;;;;5054497;28;20033;-62
2023/10/24 01:23:36;;;;;;;27.45;15.57;;;;;;;;;;5054341;28;20051;-62
2023/10/24 01:26:02;;;;;;;25.17;14.18;;;;;;;;;;5053937;28;20120;-62
2023/10/24 01:28:29;;;;;;;24.58;15.00;;;;;;;;;;5054288;28;20052;-62
2023/10/24 01:30:55;;;;;;;27.95;15.10;;;;;;;;;;5054269;28;20048;-62
2023/10/24 01:33:22;;;;;;;24.30;14.98;;;;;;;;;;5053826;28;20041;-62
2023/10/24 01:35:48;;;;;;;23.00;14.02;;;;;;;;;;5054038;28;20053;-62
2023/10/24 01:38:15;;;;;;;25.45;15.43;;;;;;;;;;5054086;28;20045;-62
2023/10/24 01:40:41;;;;;;;28.20;15.45;;;;;;;;;;5053452;28;20040;-62
2023/10/24 01:43:07;;;;;;;23.00;14.35;;;;;;;;;;5054133;28;20049;-62
2023/10/24 01:45:33;;;;;;;25.95;15.32;;;;;;;;;;5053966;28;20596;-62
2023/10/24 01:47:59;;;;;;;26.90;15.43;;;;;;;;;;5053535;28;20048;-62
2023/10/24 01:50:25;;;;;;;26.63;14.73;;;;;;;;;;5053878;28;20048;-62
2023/10/24 01:52:51;;;;;;;22.88;13.90;;;;;;;;;;5053574;28;20120;-62
2023/10/24 01:55:17;;;;;;;24.58;14.00;;;;;;;;;;5052953;28;20144;-62
2023/10/24 01:57:44;;;;;;;24.33;14.57;;;;;;;;;;5052158;28;20037;-62
2023/10/24 02:00:10;;;;;;;22.55;14.25;;;;;;;;;;5053449;28;20068;-62
2023/10/24 02:02:36;;;;;;;22.65;13.73;;;;;;;;;;5053163;28;20118;-62
2023/10/24 02:05:02;;;;;;;22.65;13.90;;;;;;;;;;5052525;28;20479;-62
2023/10/24 02:07:28;;;;;;;27.23;14.82;;;;;;;;;;5052511;28;20040;-62
2023/10/24 02:09:54;;;;;;;25.33;14.48;;;;;;;;;;5052095;28;20506;-62
2023/10/24 02:12:20;;;;;;;23.45;14.13;;;;;;;;;;5052801;28;20102;-62
2023/10/24 02:14:46;;;;;;;24.77;14.48;;;;;;;;;;5051704;28;20033;-62
2023/10/24 02:17:12;;;;;;;25.67;14.18;;;;;;;;;;5052146;28;20044;-62
2023/10/24 02:19:38;;;;;;;26.05;14.23;;;;;;;;;;5052792;28;20039;-62
2023/10/24 02:22:04;;;;;;;23.05;13.98;;;;;;;;;;5053472;28;20077;-62
2023/10/24 02:24:32;;;;;;;21.73;13.40;;;;;;;;;;5052781;28;20045;-62
2023/10/24 02:26:58;;;;;;;26.48;13.13;;;;;;;;;;5053052;28;20041;-62
2023/10/24 02:29:24;;;;;;;22.27;13.43;;;;;;;;;;5053089;28;20106;-62
2023/10/24 02:31:50;;;;;;;24.92;13.77;;;;;;;;;;5052799;28;20551;-62
2023/10/24 02:34:16;;;;;;;22.83;13.77;;;;;;;;;;5053223;28;20116;-62
2023/10/24 02:36:43;;;;;;;23.95;13.70;;;;;;;;;;5052732;28;20063;-62
2023/10/24 02:39:09;;;;;;;24.90;13.90;;;;;;;;;;5052562;28;20048;-62
2023/10/24 02:41:35;;;;;;;22.77;13.93;;;;;;;;;;5052954;28;20064;-62
2023/10/24 02:44:01;;;;;;;25.05;14.73;;;;;;;;;;5052827;28;20094;-62
2023/10/24 02:46:27;;;;;;;28.75;15.75;;;;;;;;;;5052452;28;20047;-62
2023/10/24 02:48:54;;;;;;;27.80;15.73;;;;;;;;;;5052770;28;20044;-62
2023/10/24 02:51:20;;;;;;;25.40;14.68;;;;;;;;;;5052818;28;20087;-62
2023/10/24 02:53:46;;;;;;;25.65;16.05;;;;;;;;;;5051911;28;20132;-62
2023/10/24 02:56:12;;;;;;;26.65;16.02;;;;;;;;;;5052613;28;20472;-62
2023/10/24 02:58:38;;;;;;;27.00;15.35;;;;;;;;;;5052229;28;20075;-62
2023/10/24 03:01:05;;;;;;;28.83;15.77;;;;;;;;;;5052209;28;20043;-62
2023/10/24 03:03:31;;;;;;;29.08;15.93;;;;;;;;;;5052456;28;20053;-62
2023/10/24 03:05:57;;;;;;;27.63;16.30;;;;;;;;;;5052346;28;20037;-62
2023/10/24 03:08:23;;;;;;;28.70;16.45;;;;;;;;;;5051950;28;20552;-62
2023/10/24 03:10:49;;;;;;;28.88;16.17;;;;;;;;;;5052485;28;20053;-62
2023/10/24 03:13:15;;;;;;;26.95;16.35;;;;;;;;;;5052039;28;20071;-62
2023/10/24 03:15:43;;;;;;;29.65;16.77;;;;;;;;;;5051517;28;20040;-62
2023/10/24 03:18:09;;;;;;;28.90;16.52;;;;;;;;;;5051904;28;20470;-62
2023/10/24 03:20:35;;;;;;;26.13;16.98;;;;;;;;;;5051860;28;20037;-62
2023/10/24 03:23:01;;;;;;;31.48;18.13;;;;;;;;;;5051771;28;20041;-62
2023/10/24 03:25:27;;;;;;;33.42;17.38;;;;;;;;;;5052042;28;20033;-62
2023/10/24 03:27:54;;;;;;;33.72;17.23;;;;;;;;;;5051960;28;20706;-62
2023/10/24 03:30:23;;;;;;;28.08;16.90;;;;;;;;;;5051284;28;20057;-62
2023/10/24 03:32:49;;;;;;;35.47;19.23;;;;;;;;;;5052079;28;20037;-62
2023/10/24 03:35:15;;;;;;;32.47;18.42;;;;;;;;;;5051843;28;20040;-62
2023/10/24 03:37:41;;;;;;;30.08;18.23;;;;;;;;;;5051532;28;20041;-62
2023/10/24 03:40:10;;;;;;;38.40;19.20;;;;;;;;;;5051652;28;20072;-62
2023/10/24 03:42:36;;;;;;;30.08;17.85;;;;;;;;;;5051783;28;20490;-62
2023/10/24 03:45:02;;;;;;;30.52;17.75;;;;;;;;;;5051257;28;20045;-62
2023/10/24 03:47:28;;;;;;;32.20;18.08;;;;;;;;;;5051579;28;20059;-62
2023/10/24 03:49:54;;;;;;;28.50;18.02;;;;;;;;;;5051441;28;20041;-62
2023/10/24 03:52:20;;;;;;;28.08;17.70;;;;;;;;;;5051270;28;20033;-62
2023/10/24 03:54:46;;;;;;;32.05;20.05;;;;;;;;;;5051262;28;20048;-62
2023/10/24 03:57:12;;;;;;;32.72;19.00;;;;;;;;;;5051468;28;20044;-62
2023/10/24 03:59:38;;;;;;;33.03;18.70;;;;;;;;;;5051077;28;20041;-62
2023/10/24 04:02:04;;;;;;;33.65;19.85;;;;;;;;;;5051395;28;20048;-62
2023/10/24 04:04:31;;;;;;;44.30;20.50;;;;;;;;;;5051247;28;20706;-62
2023/10/24 04:06:57;;;;;;;37.10;20.75;;;;;;;;;;5050904;28;20091;-62
2023/10/24 04:09:23;;;;;;;36.03;20.75;;;;;;;;;;5051148;28;20111;-62
2023/10/24 04:11:49;;;;;;;33.90;20.25;;;;;;;;;;5050985;28;20040;-62
2023/10/24 04:14:15;;;;;;;36.00;20.60;;;;;;;;;;5050948;28;20032;-62
2023/10/24 04:16:41;;;;;;;33.13;20.83;;;;;;;;;;5051121;28;20422;-62
2023/10/24 04:19:07;;;;;;;30.17;19.92;;;;;;;;;;5050834;28;20049;-62
2023/10/24 04:21:33;;;;;;;33.75;21.35;;;;;;;;;;5050798;28;20174;-62
2023/10/24 04:23:59;;;;;;;32.15;19.75;;;;;;;;;;5050701;28;20048;-62
2023/10/24 04:26:25;;;;;;;35.95;20.75;;;;;;;;;;5050613;28;20049;-62
2023/10/24 04:28:52;;;;;;;37.58;21.02;;;;;;;;;;5050647;28;20052;-62
2023/10/24 04:31:18;;;;;;;34.60;19.63;;;;;;;;;;5050897;28;20127;-62
2023/10/24 04:33:44;;;;;;;32.00;20.52;;;;;;;;;;5050883;28;20587;-62
2023/10/24 04:36:11;;;;;;;30.40;19.35;;;;;;;;;;5050116;28;20051;-62
2023/10/24 04:38:37;;;;;;;29.88;19.40;;;;;;;;;;5050326;28;20052;-62
2023/10/24 04:41:03;;;;;;;33.38;20.05;;;;;;;;;;5050683;28;20565;-62
2023/10/24 04:43:29;;;;;;;34.63;19.15;;;;;;;;;;5050554;28;20036;-62
2023/10/24 04:45:55;;;;;;;35.13;19.98;;;;;;;;;;5050542;28;20045;-62
2023/10/24 04:48:21;;;;;;;27.88;18.75;;;;;;;;;;5050418;28;20076;-62
2023/10/24 04:50:47;;;;;;;29.95;17.80;;;;;;;;;;5050084;28;20048;-62
2023/10/24 04:53:13;;;;;;;29.33;18.25;;;;;;;;;;5050048;28;20523;-62
2023/10/24 04:55:40;;;;;;;30.33;18.27;;;;;;;;;;5050506;28;20133;-62
2023/10/24 04:58:06;;;;;;;24.70;17.08;;;;;;;;;;5050305;28;20120;-62
2023/10/24 05:00:32;;;;;;;26.23;17.20;;;;;;;;;;5050205;28;20045;-62
2023/10/24 05:02:58;;;;;;;27.35;16.73;;;;;;;;;;5050388;28;20041;-62
2023/10/24 05:05:25;;;;;;;24.13;15.90;;;;;;;;;;5050427;28;20033;-62
2023/10/24 05:07:51;;;;;;;22.85;15.75;;;;;;;;;;5049992;28;20049;-62
2023/10/24 05:10:17;;;;;;;22.38;15.50;;;;;;;;;;5050336;28;20037;-62
2023/10/24 05:12:43;;;;;;;24.27;15.35;;;;;;;;;;5050558;28;20370;-62
2023/10/24 05:15:09;;;;;;;22.15;14.68;;;;;;;;;;5049993;28;20036;-62
2023/10/24 05:17:35;;;;;;;23.55;14.75;;;;;;;;;;5050324;28;20033;-62
2023/10/24 05:20:07;;;;;;;24.98;14.02;;;;;;;;;;5050326;28;20041;-62
2023/10/24 05:22:33;;;;;;;22.13;13.97;;;;;;;;;;5032210;28;20043;-62
2023/10/24 05:24:59;;;;;;;23.08;14.15;;;;;;;;;;5050288;28;20509;-62
2023/10/24 05:27:28;;;;;;;20.60;13.98;;;;;;;;;;5049994;28;20124;-62
2023/10/24 05:29:54;;;;;;;22.70;14.30;;;;;;;;;;5032129;28;20073;-62
2023/10/24 05:32:21;;;;;;;21.90;13.75;;;;;;;;;;5050411;28;20115;-62
2023/10/24 05:34:47;;;;;;;20.02;14.15;;;;;;;;;;5050245;28;20473;-62
2023/10/24 05:37:13;;;;;;;18.88;13.30;;;;;;;;;;5031939;28;20072;-62
2023/10/24 05:39:39;;;;;;;21.83;14.02;;;;;;;;;;5032194;28;20083;-62
2023/10/24 05:42:05;;;;;;;19.30;13.15;;;;;;;;;;5032337;28;20041;-62
2023/10/24 05:44:31;;;;;;;16.75;11.45;;;;;;;;;;5049836;28;20045;-62
2023/10/24 05:46:57;;;;;;;16.50;12.75;;;;;;;;;;5049779;28;20060;-62
2023/10/24 05:49:23;;;;;;;22.38;13.40;;;;;;;;;;5049876;28;20048;-62
2023/10/24 05:51:49;;;;;;;18.10;12.45;;;;;;;;;;5053192;28;20060;-62
2023/10/24 05:54:15;;;;;;;17.88;13.32;;;;;;;;;;5053421;28;20055;-62
2023/10/24 05:56:41;;;;;;;18.70;12.50;;;;;;;;;;5053655;28;20509;-62
2023/10/24 05:59:07;;;;;;;20.42;13.02;;;;;;;;;;5053075;28;20120;-62
2023/10/24 06:01:33;;;;;;;18.90;12.40;;;;;;;;;;5053499;28;20037;-62
2023/10/24 06:03:59;;;;;;;16.52;12.32;;;;;;;;;;5053709;28;20037;-62
2023/10/24 06:06:25;;;;;;;17.75;12.43;;;;;;;;;;5053164;28;20040;-62
2023/10/24 06:08:51;;;;;;;18.65;12.70;;;;;;;;;;5053548;28;20126;-62
2023/10/24 06:11:18;;;;;;;18.42;12.75;;;;;;;;;;5053553;28;20037;-62
2023/10/24 06:13:45;;;;;;;19.70;12.13;;;;;;;;;;5035323;28;20077;-62
2023/10/24 06:16:16;;;;;;;21.23;12.77;;;;;;;;;;5053034;28;20040;-62
2023/10/24 06:18:43;;;;;;;18.77;12.98;;;;;;;;;;5052895;28;20059;-62
2023/10/24 06:21:10;;;;;;;21.58;13.32;;;;;;;;;;5051324;28;20041;-62
2023/10/24 06:23:40;;;;;;;20.35;12.57;;;;;;;;;;5052685;28;20037;-63
2023/10/24 06:26:16;;;;;;;18.60;12.15;;;;;;;;;;5052377;28;20072;-63
2023/10/24 06:28:42;;;;;;;20.90;13.40;;;;;;;;;;5052457;28;20037;-62
2023/10/24 06:31:08;;;;;;;17.58;12.63;;;;;;;;;;5052687;28;20037;-64
2023/10/24 06:33:34;;;;;;;18.50;12.90;;;;;;;;;;5034646;28;20068;-65
2023/10/24 06:36:00;;;;;;;17.98;12.15;;;;;;;;;;5052306;28;20153;-63
2023/10/24 06:38:27;;;;;;;18.13;12.32;;;;;;;;;;5051638;28;20124;-63
2023/10/24 06:40:53;;;;;;;22.23;12.30;;;;;;;;;;5046105;28;20041;-63
2023/10/24 06:43:19;;;;;;;19.27;12.50;;;;;;;;;;5047433;28;20037;-63
2023/10/24 06:45:46;;;;;;;18.50;12.07;;;;;;;;;;5049442;28;20036;-64
2023/10/24 06:48:12;;;;;;;19.77;12.20;;;;;;;;;;5051338;28;20391;-64
2023/10/24 06:50:39;;;;;;;17.88;12.02;;;;;;;;;;5050014;28;20037;-64
2023/10/24 06:53:05;;;;;;;18.55;12.82;;;;;;;;;;5047091;28;20064;-62
2023/10/24 06:55:31;;;;;;;15.50;11.45;;;;;;;;;;5047486;28;20053;-63
2023/10/24 06:57:58;;;;;;;18.52;11.93;;;;;;;;;;5044310;28;20091;-63
2023/10/24 07:00:25;;;;;;;18.35;12.18;;;;;;;;;;5051114;28;20076;-63
2023/10/24 07:02:51;;;;;;;21.23;11.68;;;;;;;;;;5051230;28;20049;-62
2023/10/24 07:05:17;;;;;;;15.57;11.63;;;;;;;;;;5032022;28;20055;-62
2023/10/24 07:07:43;;;;;;;16.92;11.45;;;;;;;;;;5050049;28;20116;-63
2023/10/24 07:10:09;;;;;;;23.92;12.15;;;;;;;;;;5051207;28;20123;-64
2023/10/24 07:12:36;;;;;;;15.65;11.13;;;;;;;;;;5050822;28;20029;-64
2023/10/24 07:15:03;;;;;;;18.27;11.73;;;;;;;;;;5050927;28;20493;-64
2023/10/24 07:17:30;;;;;;;15.43;11.05;;;;;;;;;;5050818;28;20618;-63
2023/10/24 07:19:58;;;;;;;17.30;11.15;;;;;;;;;;5050350;28;20041;-63
2023/10/24 07:22:25;;;;;;;16.08;11.45;;;;;;;;;;5045874;28;20053;-64
2023/10/24 07:24:51;;;;;;;15.82;10.55;;;;;;;;;;5045550;28;20044;-63
2023/10/24 07:27:17;;;;;;;15.25;10.65;;;;;;;;;;5050273;28;20458;-63
2023/10/24 07:29:43;;;;;;;16.52;11.20;;;;;;;;;;5050411;28;20087;-62
2023/10/24 07:32:09;;;;;;;17.85;11.30;;;;;;;;;;5032237;28;20045;-63
2023/10/24 07:34:36;;;;;;;17.52;11.00;;;;;;;;;;5050585;28;20484;-63
2023/10/24 07:37:02;;;;;;;16.92;10.80;;;;;;;;;;5050660;28;20482;-62
2023/10/24 07:39:28;;;;;;;15.75;11.23;;;;;;;;;;5050099;28;20044;-64
2023/10/24 07:41:54;;;;;;;14.05;10.20;;;;;;;;;;5043036;28;20041;-63
2023/10/24 07:44:20;;;;;;;18.80;10.32;;;;;;;;;;5050240;28;20680;-62
2023/10/24 07:46:47;;;;;;;17.50;10.88;;;;;;;;;;5050573;28;20128;-63
2023/10/24 07:49:13;;;;;;;17.48;11.68;;;;;;;;;;5050081;28;20044;-63
2023/10/24 07:51:39;;;;;;;17.45;10.80;;;;;;;;;;5050078;28;20045;-62
2023/10/24 07:54:05;;;;;;;19.85;11.52;;;;;;;;;;5049448;28;20055;-63
2023/10/24 07:56:31;;;;;;;15.82;11.00;;;;;;;;;;5049896;28;20118;-64
2023/10/24 07:58:57;;;;;;;17.25;10.70;;;;;;;;;;5041992;28;20050;-64
2023/10/24 08:01:23;;;;;;;17.00;11.27;;;;;;;;;;5047549;28;20136;-64
2023/10/24 08:03:49;;;;;;;19.20;10.75;;;;;;;;;;5049993;28;20579;-62
2023/10/24 08:06:15;;;;;;;20.13;11.10;;;;;;;;;;5038965;28;20045;-63
2023/10/24 08:08:43;;;;;;;16.75;11.00;;;;;;;;;;5049823;28;20037;-63
2023/10/24 08:11:09;;;;;;;17.98;11.43;;;;;;;;;;5049892;28;20112;-62
2023/10/24 08:13:35;;;;;;;21.73;12.23;;;;;;;;;;5035036;28;20040;-61
2023/10/24 08:16:01;;;;;;;17.50;11.73;;;;;;;;;;5049765;28;20037;-62
2023/10/24 08:18:27;;;;;;;22.45;11.40;;;;;;;;;;5049568;28;20529;-62
2023/10/24 08:20:56;;;;;;;19.48;11.85;;;;;;;;;;5049607;28;20036;-63
2023/10/24 08:23:22;;;;;;;18.23;11.90;;;;;;;;;;5049563;28;20074;-63
2023/10/24 08:25:48;;;;;;;19.45;11.50;;;;;;;;;;5049144;28;20613;-63
2023/10/24 08:28:14;;;;;;;19.17;12.55;;;;;;;;;;5048606;28;20430;-62
2023/10/24 08:30:40;;;;;;;18.90;12.18;;;;;;;;;;5049774;28;20057;-63
2023/10/24 08:33:07;;;;;;;16.85;11.40;;;;;;;;;;5049199;28;20089;-63
2023/10/24 08:35:33;;;;;;;20.08;11.60;;;;;;;;;;5048714;28;20136;-64
2023/10/24 08:37:59;;;;;;;21.98;12.10;;;;;;;;;;5049437;28;20037;-64
2023/10/24 08:40:26;;;;;;;22.85;12.05;;;;;;;;;;5047276;28;20080;-63
2023/10/24 08:42:52;;;;;;;20.75;12.13;;;;;;;;;;5046898;28;20041;-63
2023/10/24 08:45:18;;;;;;;19.63;11.55;;;;;;;;;;5046687;28;20064;-64
2023/10/24 08:47:47;;;;;;;18.02;12.00;;;;;;;;;;5047980;28;20194;-64
2023/10/24 08:50:13;;;;;;;19.13;11.45;;;;;;;;;;5049509;28;20045;-63
2023/10/24 08:52:39;;;;;;;18.33;11.63;;;;;;;;;;5048565;28;20043;-62
2023/10/24 08:55:06;;;;;;;19.67;11.45;;;;;;;;;;5042910;28;20080;-62
2023/10/24 08:57:42;;;;;;;17.50;11.57;;;;;;;;;;5046950;28;20045;-64
2023/10/24 09:00:12;;;;;;;18.02;11.80;;;;;;;;;;5035534;28;20068;-63
2023/10/24 09:02:39;;;;;;;17.38;11.13;;;;;;;;;;5049325;28;20091;-63
2023/10/24 09:05:05;;;;;;;16.50;11.48;;;;;;;;;;5049098;28;20145;-63
2023/10/24 09:07:31;;;;;;;18.38;12.10;;;;;;;;;;5049121;28;20051;-63
2023/10/24 09:09:57;;;;;;;18.20;11.75;;;;;;;;;;5048529;28;20037;-63
2023/10/24 09:12:23;;;;;;;18.33;11.73;;;;;;;;;;5049111;28;20040;-63
2023/10/24 09:14:49;;;;;;;18.85;12.80;;;;;;;;;;5049516;28;20041;-63
2023/10/24 09:17:16;;;;;;;19.58;11.98;;;;;;;;;;5048885;28;20041;-63
2023/10/24 09:19:42;;;;;;;19.92;12.20;;;;;;;;;;5048882;28;20037;-63
2023/10/24 09:22:16;;;;;;;15.93;11.15;;;;;;;;;;5049137;28;20407;-64
2023/10/24 09:24:48;;;;;;;17.58;11.30;;;;;;;;;;5050662;28;20041;-64
2023/10/24 09:27:14;;;;;;;17.40;11.40;;;;;;;;;;5046161;28;20037;-62
2023/10/24 09:29:41;;;;;;;17.20;11.73;;;;;;;;;;5041995;28;20095;-65
2023/10/24 09:32:07;;;;;;;18.38;11.77;;;;;;;;;;5050788;28;20045;-66
2023/10/24 09:34:34;;;;;;;17.20;11.55;;;;;;;;;;5044777;28;20124;-65
2023/10/24 09:37:06;;;;;;;16.58;10.93;;;;;;;;;;5048227;28;20744;-65
2023/10/24 09:39:32;;;;;;;;;;;;;;;;;;5039980;28;20052;-64
2023/10/24 09:41:58;;;;;;;14.20;10.43;;;;;;;;;;5052412;28;19946;-64
2023/10/24 09:44:25;;;;;;;14.52;10.55;;;;;;;;;;5051519;28;20028;-64
2023/10/24 09:46:51;;;;;;;14.70;10.70;;;;;;;;;;5052593;28;20377;-62
2023/10/24 09:49:18;;;;;;;14.38;10.25;;;;;;;;;;5051065;28;20099;-63
2023/10/24 09:51:45;;;;;;;15.90;10.77;;;;;;;;;;5047051;28;20402;-65
2023/10/24 09:54:11;;;;;;;14.43;10.10;;;;;;;;;;5045360;28;20530;-64
2023/10/24 09:56:37;;;;;;;14.15;10.30;;;;;;;;;;5046618;28;20438;-64
2023/10/24 09:59:05;;;;;;;14.90;10.15;;;;;;;;;;5051527;28;20099;-65
2023/10/24 10:01:32;;;;;;;12.55;9.48;;;;;;;;;;5048079;28;20040;-64
2023/10/24 10:04:13;;;;;;;13.13;9.32;;;;;;;;;;5007039;28;20128;-64
2023/10/24 10:06:40;;;;;;;14.85;9.65;;;;;;;;;;5045247;28;20045;-64
2023/10/24 10:09:06;;;;;;;15.15;9.57;;;;;;;;;;5051360;28;20644;-64
2023/10/24 10:11:32;;;;;;;13.35;9.35;;;;;;;;;;5050306;28;20043;-64
2023/10/24 10:14:08;;;;;;;13.55;9.38;;;;;;;;;;5050645;28;20128;-63
2023/10/24 10:16:44;;;;;;;12.60;9.93;;;;;;;;;;5046479;28;20415;-64
2023/10/24 10:19:20;;;;;;;14.20;9.60;;;;;;;;;;5044195;28;20041;-65
2023/10/24 10:21:55;;;;;;;16.08;10.00;;;;;;;;;;5050735;28;20045;-64
2023/10/24 10:24:33;;;;;;;15.82;10.00;;;;;;;;;;5039394;28;20131;-64
2023/10/24 10:27:20;;;;;;;14.45;10.55;;;;;;;;;;5042450;28;20045;-63
2023/10/24 10:30:01;;;;;;;15.40;9.60;;;;;;;;;;5046663;28;20041;-64
2023/10/24 10:32:44;;;;;;;13.63;10.02;;;;;;;;;;5031384;28;20056;-64
2023/10/24 10:35:11;;;;;;;12.30;9.50;;;;;;;;;;5042916;28;20056;-64
2023/10/24 10:37:37;;;;;;;13.75;10.15;;;;;;;;;;5044302;28;20057;-64
2023/10/24 10:40:30;;;;;;;14.93;9.90;;;;;;;;;;5049862;28;20051;-63
2023/10/24 10:42:56;;;;;;;14.30;10.43;;;;;;;;;;5042346;28;20049;-65
2023/10/24 10:45:29;;;;;;;14.43;10.15;;;;;;;;;;5050150;28;20085;-64
2023/10/24 10:47:56;;;;;;;15.35;10.10;;;;;;;;;;5050476;28;20041;-63
2023/10/24 10:50:25;;;;;;;14.30;10.45;;;;;;;;;;5049351;28;20072;-64
2023/10/24 10:53:02;;;;;;;15.32;11.00;;;;;;;;;;5040592;28;20460;-63
2023/10/24 10:55:28;;;;;;;15.43;9.85;;;;;;;;;;5046091;28;20110;-64
2023/10/24 10:57:56;;;;;;;14.80;10.60;;;;;;;;;;5046791;28;20499;-63
2023/10/24 11:00:24;;;;;;;15.43;10.75;;;;;;;;;;5050410;28;20080;-63
2023/10/24 11:03:12;;;;;;;13.65;10.55;;;;;;;;;;5045783;28;20044;-63
2023/10/24 11:05:38;;;;;;;18.65;11.13;;;;;;;;;;5026323;28;20568;-64
2023/10/24 11:08:07;;;;;;;14.73;10.75;;;;;;;;;;5046576;28;20041;-63
2023/10/24 11:10:52;;;;;;;13.88;9.85;;;;;;;;;;5028722;28;20053;-63
2023/10/24 11:13:32;;;;;;;18.05;11.05;;;;;;;;;;5050250;28;20124;-63
2023/10/24 11:15:58;;;;;;;16.52;10.82;;;;;;;;;;5047042;28;20048;-64
2023/10/24 11:18:24;;;;;;;16.48;11.38;;;;;;;;;;5050212;28;20040;-64
2023/10/24 11:20:50;;;;;;;15.27;11.70;;;;;;;;;;5051254;28;20039;-64
2023/10/24 11:23:16;;;;;;;20.05;10.48;;;;;;;;;;5050148;28;20041;-64
2023/10/24 11:25:43;;;;;;;17.33;11.05;;;;;;;;;;5029778;28;20036;-64
2023/10/24 11:28:10;;;;;;;14.70;10.57;;;;;;;;;;5049306;28;20060;-63
2023/10/24 11:30:36;;;;;;;14.15;10.38;;;;;;;;;;5014792;28;20049;-63
2023/10/24 11:33:02;;;;;;;15.85;10.70;;;;;;;;;;5050624;28;20457;-62
2023/10/24 11:35:28;;;;;;;19.90;12.43;;;;;;;;;;5039493;28;20573;-63
2023/10/24 11:37:54;;;;;;;18.45;11.38;;;;;;;;;;4992340;28;20484;-62
2023/10/24 11:40:20;;;;;;;16.58;11.00;;;;;;;;;;5025607;28;20432;-63
2023/10/24 11:42:46;;;;;;;15.63;11.13;;;;;;;;;;5013147;28;20044;-62
2023/10/24 11:45:12;;;;;;;14.27;11.18;;;;;;;;;;5007996;28;20077;-62
2023/10/24 11:47:38;;;;;;;14.55;10.55;;;;;;;;;;5031407;28;20091;-64
2023/10/24 11:50:05;;;;;;;12.80;9.98;;;;;;;;;;5031168;28;20048;-64
2023/10/24 11:52:31;;;;;;;13.75;10.65;;;;;;;;;;5049444;28;20049;-63
2023/10/24 11:54:57;;;;;;;15.10;10.73;;;;;;;;;;5049896;28;20060;-63
2023/10/24 11:57:23;;;;;;;14.13;10.50;;;;;;;;;;5049739;28;20049;-64
2023/10/24 11:59:51;;;;;;;14.55;10.82;;;;;;;;;;5044961;28;20045;-64
2023/10/24 12:02:17;;;;;;;14.32;11.30;;;;;;;;;;5050724;28;20044;-64
2023/10/24 12:04:50;;;;;;;13.90;11.30;;;;;;;;;;5050434;28;20044;-63
2023/10/24 12:07:16;;;;;;;16.58;10.77;;;;;;;;;;5048679;28;20049;-63
2023/10/24 12:09:42;;;;;;;12.80;10.43;;;;;;;;;;5043482;28;20046;-64
2023/10/24 12:12:08;;;;;;;12.73;9.98;;;;;;;;;;5050060;28;20052;-63
2023/10/24 12:14:35;;;;;;;11.15;9.50;;;;;;;;;;5047432;28;20430;-63
2023/10/24 12:17:01;;;;;;;13.82;9.88;;;;;;;;;;5048113;28;20041;-63
2023/10/24 12:19:27;;;;;;;13.32;8.93;;;;;;;;;;5047477;28;20041;-63
2023/10/24 12:21:54;;;;;;;11.65;8.48;;;;;;;;;;5046065;28;20045;-63
2023/10/24 12:24:20;;;;;;;10.20;8.73;;;;;;;;;;5046634;28;20041;-63
2023/10/24 12:26:46;;;;;;;11.95;8.73;;;;;;;;;;5046203;28;20128;-63
2023/10/24 12:29:12;;;;;;;11.57;8.30;;;;;;;;;;5047133;28;20087;-62
2023/10/24 12:31:38;;;;;;;11.48;7.55;;;;;;;;;;5048264;28;20380;-65
2023/10/24 12:34:04;;;;;;;10.75;8.30;;;;;;;;;;5031420;28;20124;-64
2023/10/24 12:36:31;;;;;;;9.80;8.30;;;;;;;;;;5049237;28;20552;-63
2023/10/24 12:38:57;;;;;;;10.70;8.38;;;;;;;;;;5049328;28;20484;-62
2023/10/24 12:41:24;;;;;;;13.55;8.75;;;;;;;;;;5030630;28;20049;-63
2023/10/24 12:43:50;;;;;;;11.50;8.63;;;;;;;;;;5049217;28;20496;-63
2023/10/24 12:46:16;;;;;;;10.20;7.65;;;;;;;;;;5049374;28;20083;-62
2023/10/24 12:48:43;;;;;;;12.15;8.20;;;;;;;;;;5049367;28;20443;-63
2023/10/24 12:51:09;;;;;;;14.50;8.02;;;;;;;;;;5049039;28;20166;-62
2023/10/24 12:53:35;;;;;;;9.13;6.97;;;;;;;;;;5043958;28;20399;-62
2023/10/24 12:56:02;;;;;;;11.32;7.38;;;;;;;;;;5049433;28;20049;-63
2023/10/24 12:58:28;;;;;;;11.63;7.93;;;;;;;;;;5049216;28;20398;-63
2023/10/24 13:00:55;;;;;;;11.38;7.43;;;;;;;;;;5047825;28;20124;-62
2023/10/24 13:03:21;;;;;;;9.20;7.32;;;;;;;;;;5042955;28;20044;-63
2023/10/24 13:05:48;;;;;;;8.43;6.95;;;;;;;;;;5046724;28;20494;-64
2023/10/24 13:08:14;;;;;;;9.45;6.95;;;;;;;;;;5035836;28;20060;-64
2023/10/24 13:10:40;;;;;;;8.80;6.80;;;;;;;;;;5046628;28;20388;-65
2023/10/24 13:13:06;;;;;;;9.10;6.78;;;;;;;;;;5048054;28;20040;-65
2023/10/24 13:15:32;;;;;;;10.35;6.63;;;;;;;;;;5041434;28;20040;-65
2023/10/24 13:17:58;;;;;;;8.73;6.65;;;;;;;;;;5044066;28;21342;-65
2023/10/24 13:20:24;;;;;;;12.10;7.25;;;;;;;;;;5046978;28;20493;-64
2023/10/24 13:22:51;;;;;;;9.40;6.57;;;;;;;;;;5042858;28;20484;-64
2023/10/24 13:25:17;;;;;;;13.13;7.28;;;;;;;;;;5047646;28;20041;-65
2023/10/24 13:27:43;;;;;;;12.48;6.53;;;;;;;;;;5038883;28;20460;-65
2023/10/24 13:30:09;;;;;;;9.98;6.75;;;;;;;;;;5026251;28;20046;-65
2023/10/24 13:32:38;;;;;;;10.20;7.32;;;;;;;;;;5030056;28;20041;-66
2023/10/24 13:35:04;;;;;;;9.70;7.28;;;;;;;;;;5045903;28;20041;-64
2023/10/24 13:37:30;;;;;;;10.30;7.22;;;;;;;;;;5045969;28;20387;-65
2023/10/24 13:39:56;;;;;;;8.68;7.40;;;;;;;;;;5048388;28;20048;-65
2023/10/24 13:42:22;;;;;;;11.05;6.60;;;;;;;;;;5047162;28;20424;-65
2023/10/24 13:44:49;;;;;;;9.68;6.63;;;;;;;;;;5038149;28;20186;-65
2023/10/24 13:47:15;;;;;;;9.18;5.80;;;;;;;;;;5047389;28;20056;-64
2023/10/24 13:49:41;;;;;;;6.32;5.20;;;;;;;;;;5048592;28;20531;-63
2023/10/24 13:52:07;;;;;;;5.82;4.65;;;;;;;;;;5044802;28;20208;-63
2023/10/24 13:54:33;;;;;;;6.82;5.43;;;;;;;;;;5046935;28;20052;-63
2023/10/24 13:56:59;;;;;;;6.55;4.95;;;;;;;;;;5048918;28;20041;-63
2023/10/24 13:59:26;;;;;;;6.80;5.63;;;;;;;;;;5049069;28;20403;-62
2023/10/24 14:01:52;;;;;;;9.63;6.68;;;;;;;;;;5048659;28;20061;-64
2023/10/24 14:04:18;;;;;;;9.73;7.18;;;;;;;;;;5049313;28;20052;-62
2023/10/24 14:06:44;;;;;;;10.70;8.68;;;;;;;;;;5048493;28;20475;-61
2023/10/24 14:09:13;;;;;;;13.55;9.15;;;;;;;;;;5049340;28;20048;-63
2023/10/24 14:11:39;;;;;;;13.50;9.27;;;;;;;;;;5032941;28;20360;-63
2023/10/24 14:14:05;;;;;;;11.27;8.93;;;;;;;;;;5052564;28;20690;-63
2023/10/24 14:16:32;;;;;;;10.25;8.40;;;;;;;;;;5052187;28;20128;-62
2023/10/24 14:18:59;;;;;;;11.73;8.70;;;;;;;;;;5052520;28;20044;-63